createdAt,value
2023-11-02T00:00:59.013Z,100036.22
2023-11-02T00:06:23.550Z,100022.50
2023-11-02T00:11:52.996Z,100008.63
2023-11-02T00:16:58.542Z,99996.34
2023-11-02T00:22:08.622Z,99997.41
2023-11-02T00:27:13.348Z,99998.34
2023-11-02T00:32:20.663Z,99992.47
2023-11-02T00:37:24.379Z,100002.63
2023-11-02T00:42:28.159Z,100001.06
2023-11-02T00:47:33.487Z,99989.13
2023-11-02T00:52:37.266Z,99973.41
2023-11-02T00:57:42.446Z,99983.88
2023-11-02T01:02:51.811Z,99986.59
2023-11-02T01:07:56.929Z,99984.09
2023-11-02T01:13:05.273Z,99966.47
2023-11-02T01:18:13.031Z,99957.44
2023-11-02T01:23:22.782Z,99958.47
2023-11-02T01:28:53.234Z,99962.06
2023-11-02T01:34:01.594Z,99952.50
2023-11-02T01:39:35.660Z,99962.47
2023-11-02T01:44:50.120Z,99940.13
2023-11-02T01:50:06.231Z,99925.56
2023-11-02T01:55:17.520Z,99933.00
2023-11-02T02:00:30.109Z,99924.59
2023-11-02T02:05:42.446Z,99923.22
2023-11-02T02:11:00.637Z,99912.97
2023-11-02T02:16:13.677Z,99899.00
2023-11-02T02:21:27.066Z,99898.25
2023-11-02T02:27:08.990Z,99907.91
2023-11-02T02:32:49.402Z,99896.63
2023-11-02T02:38:00.917Z,99896.75
2023-11-02T02:43:07.319Z,99893.38
2023-11-02T02:48:13.273Z,99880.44
2023-11-02T02:53:20.548Z,99879.03
2023-11-02T02:58:26.108Z,99876.88
2023-11-02T03:03:31.887Z,99882.13
2023-11-02T03:08:38.182Z,99882.69
2023-11-02T03:13:44.984Z,99886.34
2023-11-02T03:18:48.857Z,99884.09
2023-11-02T03:23:58.530Z,99877.75
2023-11-02T03:29:09.220Z,99865.41
2023-11-02T03:34:18.850Z,99846.31
2023-11-02T03:39:33.527Z,99846.59
2023-11-02T03:44:53.942Z,99842.31
2023-11-02T03:50:18.598Z,99813.63
2023-11-02T03:55:39.691Z,99799.34
2023-11-02T04:00:49.973Z,99802.59
2023-11-02T04:05:59.315Z,99791.88
2023-11-02T04:11:15.884Z,99793.25
2023-11-02T04:16:19.733Z,99785.13
2023-11-02T04:21:23.463Z,99773.91
2023-11-02T04:26:29.036Z,99779.69
2023-11-02T04:31:33.561Z,99775.09
2023-11-02T04:36:38.127Z,99779.19
2023-11-02T04:41:43.367Z,99765.28
2023-11-02T04:46:47.132Z,99758.56
2023-11-02T04:51:57.257Z,99756.03
2023-11-02T04:57:02.498Z,99744.88
2023-11-02T05:02:06.739Z,99726.28
2023-11-02T05:07:10.582Z,99716.03
2023-11-02T05:12:15.772Z,99724.53
2023-11-02T05:17:19.987Z,99701.19
2023-11-02T05:22:23.612Z,99684.13
2023-11-02T05:27:30.833Z,99686.13
2023-11-02T05:32:34.680Z,99679.69
2023-11-02T05:37:38.375Z,99668.72
2023-11-02T05:42:43.531Z,99667.13
2023-11-02T05:47:47.232Z,99658.28
2023-11-02T05:52:50.943Z,99669.09
2023-11-02T05:57:57.660Z,99673.69
2023-11-02T06:03:02.036Z,99654.97
2023-11-02T06:08:06.255Z,99650.97
2023-11-02T06:13:11.305Z,99641.81
2023-11-02T06:18:15.099Z,99636.88
2023-11-02T06:23:19.194Z,99633.81
2023-11-02T06:28:25.019Z,99643.50
2023-11-02T06:33:31.267Z,99655.53
2023-11-02T06:38:35.981Z,99644.63
2023-11-02T06:43:44.894Z,99635.94
2023-11-02T06:48:48.696Z,99636.47
2023-11-02T06:53:53.086Z,99623.22
2023-11-02T06:58:58.446Z,99624.97
2023-11-02T07:04:02.380Z,99614.78
2023-11-02T07:09:07.582Z,99610.88
2023-11-02T07:14:12.786Z,99600.56
2023-11-02T07:19:16.454Z,99579.44
2023-11-02T07:24:20.193Z,99561.19
2023-11-02T07:29:25.407Z,99568.38
2023-11-02T07:34:29.485Z,99558.91
2023-11-02T07:39:34.806Z,99551.19
2023-11-02T07:44:40.043Z,99545.34
2023-11-02T07:49:43.731Z,99528.38
2023-11-02T07:54:47.816Z,99535.25
2023-11-02T07:59:53.079Z,99512.53
2023-11-02T08:04:57.607Z,99492.53
2023-11-02T08:10:02.926Z,99487.19
2023-11-02T08:15:09.942Z,99462.94
2023-11-02T08:20:15.474Z,99452.59
2023-11-02T08:25:19.168Z,99448.41
2023-11-02T08:30:24.988Z,99430.84
2023-11-02T08:35:28.745Z,99421.75
2023-11-02T08:40:32.451Z,99427.03
2023-11-02T08:45:41.401Z,99416.31
2023-11-02T08:50:46.351Z,99396.50
2023-11-02T08:55:57.343Z,99386.78
2023-11-02T09:01:06.610Z,99388.34
2023-11-02T09:06:11.322Z,99390.81
2023-11-02T09:11:15.353Z,99360.34
2023-11-02T09:16:20.853Z,99346.16
2023-11-02T09:21:24.566Z,99340.25
2023-11-02T09:26:28.265Z,99322.28
2023-11-02T09:31:33.279Z,99318.50
2023-11-02T09:36:37.219Z,99300.53
2023-11-02T09:41:42.784Z,99300.00
2023-11-02T09:46:47.955Z,99295.81
2023-11-02T09:51:51.727Z,99293.19
2023-11-02T09:56:56.280Z,99277.97
2023-11-02T10:02:02.612Z,99284.88
2023-11-02T10:07:07.807Z,99274.66
2023-11-02T10:12:11.695Z,99279.44
2023-11-02T10:17:17.317Z,99258.00
2023-11-02T10:22:22.711Z,99234.72
2023-11-02T10:27:26.614Z,99203.91
2023-11-02T10:32:32.547Z,99189.03
2023-11-02T10:37:37.886Z,99195.56
2023-11-02T10:42:42.845Z,99198.56
2023-11-02T10:47:48.968Z,99180.63
2023-11-02T10:52:59.329Z,99088.19
2023-11-02T10:58:06.003Z,99109.91
2023-11-02T11:03:12.200Z,99130.25
2023-11-02T11:08:16.824Z,99129.63
2023-11-02T11:13:21.896Z,99128.69
2023-11-02T11:18:29.439Z,99139.34
2023-11-02T11:23:38.084Z,99126.00
2023-11-02T11:28:41.897Z,99098.63
2023-11-02T11:33:53.462Z,99082.59
2023-11-02T11:38:59.647Z,99068.47
2023-11-02T11:44:07.281Z,99084.94
2023-11-02T11:49:46.396Z,99071.09
2023-11-02T11:54:50.243Z,99060.03
2023-11-02T12:00:11.852Z,99061.25
2023-11-02T12:05:36.789Z,99074.41
2023-11-02T12:10:46.547Z,99067.50
2023-11-02T12:16:00.233Z,99071.22
2023-11-02T12:21:12.473Z,99061.53
2023-11-02T12:26:16.434Z,99050.03
2023-11-02T12:31:32.315Z,99053.66
2023-11-02T12:36:38.207Z,99036.34
2023-11-02T12:41:43.052Z,99034.13
2023-11-02T12:46:49.505Z,99009.59
2023-11-02T12:52:08.381Z,98988.88
2023-11-02T12:57:12.637Z,98972.97
2023-11-02T13:02:26.202Z,98964.53
2023-11-02T13:07:34.035Z,98964.44
2023-11-02T13:12:41.168Z,98970.13
2023-11-02T13:17:47.522Z,98952.00
2023-11-02T13:22:53.382Z,98963.50
2023-11-02T13:27:57.512Z,98956.69
2023-11-02T13:33:00.991Z,98960.19
2023-11-02T13:38:06.134Z,98972.06
2023-11-02T13:43:10.791Z,98961.13
2023-11-02T13:48:15.484Z,98966.13
2023-11-02T13:53:24.103Z,98977.75
2023-11-02T13:58:28.084Z,98965.00
2023-11-02T14:03:32.984Z,98956.03
2023-11-02T14:08:38.827Z,98943.34
2023-11-02T14:13:45.090Z,98936.00
2023-11-02T14:18:49.810Z,98922.72
2023-11-02T14:23:55.586Z,98918.03
2023-11-02T14:28:59.426Z,98918.59
2023-11-02T14:34:04.221Z,98898.84
2023-11-02T14:39:09.440Z,98898.16
2023-11-02T14:44:13.141Z,98898.00
2023-11-02T14:49:17.018Z,98896.06
2023-11-02T14:54:22.811Z,98894.84
2023-11-02T14:59:26.585Z,98879.63
2023-11-02T15:04:30.442Z,98876.59
2023-11-02T15:09:35.374Z,98884.84
2023-11-02T15:14:40.532Z,98868.16
2023-11-02T15:19:46.071Z,98867.88
2023-11-02T15:24:51.220Z,98870.09
2023-11-02T15:29:55.812Z,98874.09
2023-11-02T15:34:59.518Z,98871.75
2023-11-02T15:40:05.672Z,98871.59
2023-11-02T15:45:12.001Z,98874.38
2023-11-02T15:50:16.129Z,98873.91
2023-11-02T15:55:24.493Z,98863.16
2023-11-02T16:00:28.603Z,98864.53
2023-11-02T20:24:04.497Z,98750.84
2023-11-02T20:29:08.438Z,98748.22
2023-11-02T20:34:12.210Z,98744.88
2023-11-02T20:39:17.448Z,98734.53
2023-11-02T20:44:21.206Z,98746.94
2023-11-02T20:49:25.423Z,98752.56
2023-11-02T20:54:33.438Z,98740.88
2023-11-02T20:59:37.909Z,98721.00
2023-11-02T21:04:41.612Z,98720.03
2023-11-02T21:09:47.224Z,98701.41
2023-11-02T21:14:51.019Z,98693.94
2023-11-02T21:19:54.876Z,98685.09
2023-11-02T21:25:00.075Z,98697.25
2023-11-02T21:30:03.794Z,98707.72
2023-11-02T21:35:08.879Z,98715.16
2023-11-02T21:40:15.050Z,98690.88
2023-11-02T21:45:19.123Z,98695.56
2023-11-02T21:50:22.951Z,98686.59
2023-11-02T21:55:28.080Z,98679.69
2023-11-02T22:00:31.917Z,98683.56
2023-11-02T22:05:36.171Z,98681.44
2023-11-02T22:10:41.372Z,98681.56
2023-11-02T22:15:45.294Z,98692.31
2023-11-02T22:20:49.391Z,98694.66
2023-11-02T22:25:54.930Z,98698.41
2023-11-02T22:30:58.943Z,98685.44
2023-11-02T22:36:05.055Z,98685.72
2023-11-02T22:41:10.179Z,98686.31
2023-11-02T22:46:14.120Z,98672.94
2023-11-02T22:51:17.867Z,98667.13
2023-11-02T22:56:23.129Z,98662.97
2023-11-02T23:01:26.909Z,98660.22
2023-11-02T23:06:30.843Z,98637.31
2023-11-02T23:11:36.136Z,98630.88
2023-11-02T23:16:40.037Z,98623.81
2023-11-02T23:21:43.746Z,98631.44
2023-11-02T23:26:48.869Z,98626.88
2023-11-02T23:31:52.741Z,98603.06
2023-11-02T23:36:58.610Z,98605.00
2023-11-02T23:42:05.267Z,98603.47
2023-11-02T23:47:11.204Z,98593.66
2023-11-02T23:52:14.937Z,98567.75
2023-11-02T23:57:19.997Z,98560.03
